sensor_id;sensor_type;location;lat;lon;timestamp;P1;durP1;ratioP1;P2;durP2;ratioP2
72406;SDS011;60396;47.550;18.828;2022-07-23T00:00:32;7.85;;;3.58;;
72406;SDS011;60396;47.550;18.828;2022-07-23T00:03:06;6.40;;;3.37;;
72406;SDS011;60396;47.550;18.828;2022-07-23T00:05:34;8.15;;;3.42;;
72406;SDS011;60396;47.550;18.828;2022-07-23T00:08:04;8.18;;;3.45;;
72406;SDS011;60396;47.550;18.828;2022-07-23T00:10:40;8.10;;;3.50;;
72406;SDS011;60396;47.550;18.828;2022-07-23T00:13:08;10.35;;;3.80;;
72406;SDS011;60396;47.550;18.828;2022-07-23T00:15:36;11.43;;;4.13;;
72406;SDS011;60396;47.550;18.828;2022-07-23T00:18:04;8.85;;;3.78;;
72406;SDS011;60396;47.550;18.828;2022-07-23T00:20:31;10.10;;;3.37;;
72406;SDS011;60396;47.550;18.828;2022-07-23T00:22:59;11.23;;;3.80;;
72406;SDS011;60396;47.550;18.828;2022-07-23T00:25:27;16.33;;;3.72;;
72406;SDS011;60396;47.550;18.828;2022-07-23T00:27:57;7.70;;;3.23;;
72406;SDS011;60396;47.550;18.828;2022-07-23T00:30:26;9.90;;;4.07;;
72406;SDS011;60396;47.550;18.828;2022-07-23T00:32:55;8.27;;;3.45;;
72406;SDS011;60396;47.550;18.828;2022-07-23T00:35:25;8.60;;;3.87;;
72406;SDS011;60396;47.550;18.828;2022-07-23T00:37:54;9.65;;;3.33;;
72406;SDS011;60396;47.550;18.828;2022-07-23T00:40:22;8.33;;;3.30;;
72406;SDS011;60396;47.550;18.828;2022-07-23T00:42:50;7.75;;;3.53;;
72406;SDS011;60396;47.550;18.828;2022-07-23T00:45:18;6.78;;;3.30;;
72406;SDS011;60396;47.550;18.828;2022-07-23T00:47:46;9.30;;;4.03;;
72406;SDS011;60396;47.550;18.828;2022-07-23T00:50:14;7.07;;;3.58;;
72406;SDS011;60396;47.550;18.828;2022-07-23T00:52:42;10.10;;;4.10;;
72406;SDS011;60396;47.550;18.828;2022-07-23T00:55:11;7.40;;;3.45;;
72406;SDS011;60396;47.550;18.828;2022-07-23T00:57:40;8.25;;;3.85;;
72406;SDS011;60396;47.550;18.828;2022-07-23T01:00:10;7.28;;;3.40;;
72406;SDS011;60396;47.550;18.828;2022-07-23T01:02:40;8.18;;;3.78;;
72406;SDS011;60396;47.550;18.828;2022-07-23T01:05:09;7.77;;;3.67;;
72406;SDS011;60396;47.550;18.828;2022-07-23T01:07:37;7.85;;;3.53;;
72406;SDS011;60396;47.550;18.828;2022-07-23T01:10:05;8.00;;;3.53;;
72406;SDS011;60396;47.550;18.828;2022-07-23T01:12:53;7.18;;;3.90;;
72406;SDS011;60396;47.550;18.828;2022-07-23T01:15:21;7.85;;;3.75;;
72406;SDS011;60396;47.550;18.828;2022-07-23T01:17:50;9.60;;;4.00;;
72406;SDS011;60396;47.550;18.828;2022-07-23T01:20:18;7.47;;;3.40;;
72406;SDS011;60396;47.550;18.828;2022-07-23T01:22:46;7.72;;;3.65;;
72406;SDS011;60396;47.550;18.828;2022-07-23T01:25:15;8.75;;;3.47;;
72406;SDS011;60396;47.550;18.828;2022-07-23T01:27:44;8.38;;;3.40;;
72406;SDS011;60396;47.550;18.828;2022-07-23T01:30:11;7.00;;;3.43;;
72406;SDS011;60396;47.550;18.828;2022-07-23T01:32:40;7.30;;;3.58;;
72406;SDS011;60396;47.550;18.828;2022-07-23T01:35:08;10.77;;;3.45;;
72406;SDS011;60396;47.550;18.828;2022-07-23T01:37:37;9.27;;;4.03;;
72406;SDS011;60396;47.550;18.828;2022-07-23T01:40:05;9.70;;;3.87;;
72406;SDS011;60396;47.550;18.828;2022-07-23T01:42:34;8.10;;;4.73;;
72406;SDS011;60396;47.550;18.828;2022-07-23T01:45:03;8.15;;;4.50;;
72406;SDS011;60396;47.550;18.828;2022-07-23T01:47:33;9.52;;;3.60;;
72406;SDS011;60396;47.550;18.828;2022-07-23T01:50:01;15.07;;;4.68;;
72406;SDS011;60396;47.550;18.828;2022-07-23T01:52:30;10.50;;;4.40;;
72406;SDS011;60396;47.550;18.828;2022-07-23T01:54:58;8.03;;;3.60;;
72406;SDS011;60396;47.550;18.828;2022-07-23T01:57:26;8.65;;;3.87;;
72406;SDS011;60396;47.550;18.828;2022-07-23T01:59:53;9.30;;;3.70;;
72406;SDS011;60396;47.550;18.828;2022-07-23T02:02:22;6.80;;;3.12;;
72406;SDS011;60396;47.550;18.828;2022-07-23T02:04:50;7.30;;;3.60;;
72406;SDS011;60396;47.550;18.828;2022-07-23T02:07:18;7.97;;;3.80;;
72406;SDS011;60396;47.550;18.828;2022-07-23T02:09:46;9.02;;;3.78;;
72406;SDS011;60396;47.550;18.828;2022-07-23T02:12:14;8.52;;;3.65;;
72406;SDS011;60396;47.550;18.828;2022-07-23T02:14:44;8.43;;;3.47;;
72406;SDS011;60396;47.550;18.828;2022-07-23T02:17:11;7.70;;;3.55;;
72406;SDS011;60396;47.550;18.828;2022-07-23T02:19:39;8.97;;;3.87;;
72406;SDS011;60396;47.550;18.828;2022-07-23T02:22:07;9.65;;;3.58;;
72406;SDS011;60396;47.550;18.828;2022-07-23T02:24:34;13.68;;;3.72;;
72406;SDS011;60396;47.550;18.828;2022-07-23T02:27:02;7.78;;;3.70;;
72406;SDS011;60396;47.550;18.828;2022-07-23T02:29:31;8.95;;;3.85;;
72406;SDS011;60396;47.550;18.828;2022-07-23T02:31:59;8.13;;;3.80;;
72406;SDS011;60396;47.550;18.828;2022-07-23T02:34:27;7.68;;;3.70;;
72406;SDS011;60396;47.550;18.828;2022-07-23T02:36:55;7.93;;;3.70;;
72406;SDS011;60396;47.550;18.828;2022-07-23T02:39:23;8.25;;;4.25;;
72406;SDS011;60396;47.550;18.828;2022-07-23T02:41:51;8.75;;;4.25;;
72406;SDS011;60396;47.550;18.828;2022-07-23T02:44:19;9.23;;;3.57;;
72406;SDS011;60396;47.550;18.828;2022-07-23T02:46:47;14.52;;;3.87;;
72406;SDS011;60396;47.550;18.828;2022-07-23T02:49:16;7.50;;;3.10;;
72406;SDS011;60396;47.550;18.828;2022-07-23T02:51:45;9.60;;;3.65;;
72406;SDS011;60396;47.550;18.828;2022-07-23T02:54:12;7.65;;;3.50;;
72406;SDS011;60396;47.550;18.828;2022-07-23T02:56:40;8.57;;;3.63;;
72406;SDS011;60396;47.550;18.828;2022-07-23T02:59:08;7.37;;;3.03;;
72406;SDS011;60396;47.550;18.828;2022-07-23T03:01:36;7.35;;;3.28;;
72406;SDS011;60396;47.550;18.828;2022-07-23T03:04:03;7.72;;;3.40;;
72406;SDS011;60396;47.550;18.828;2022-07-23T03:06:31;7.28;;;3.80;;
72406;SDS011;60396;47.550;18.828;2022-07-23T03:08:59;9.57;;;3.97;;
72406;SDS011;60396;47.550;18.828;2022-07-23T03:11:27;9.13;;;3.75;;
72406;SDS011;60396;47.550;18.828;2022-07-23T03:13:55;7.28;;;3.28;;
72406;SDS011;60396;47.550;18.828;2022-07-23T03:16:23;8.90;;;3.80;;
72406;SDS011;60396;47.550;18.828;2022-07-23T03:18:51;7.82;;;3.53;;
72406;SDS011;60396;47.550;18.828;2022-07-23T03:21:18;7.80;;;3.90;;
72406;SDS011;60396;47.550;18.828;2022-07-23T03:23:46;10.13;;;3.75;;
72406;SDS011;60396;47.550;18.828;2022-07-23T03:26:14;10.15;;;3.40;;
72406;SDS011;60396;47.550;18.828;2022-07-23T03:28:41;9.30;;;3.80;;
72406;SDS011;60396;47.550;18.828;2022-07-23T03:31:09;8.43;;;3.17;;
72406;SDS011;60396;47.550;18.828;2022-07-23T03:33:37;9.07;;;3.63;;
72406;SDS011;60396;47.550;18.828;2022-07-23T03:36:05;8.02;;;3.55;;
72406;SDS011;60396;47.550;18.828;2022-07-23T03:38:36;8.07;;;3.33;;
72406;SDS011;60396;47.550;18.828;2022-07-23T03:41:04;11.00;;;4.07;;
72406;SDS011;60396;47.550;18.828;2022-07-23T03:43:32;8.65;;;3.83;;
72406;SDS011;60396;47.550;18.828;2022-07-23T03:46:00;7.93;;;3.70;;
72406;SDS011;60396;47.550;18.828;2022-07-23T03:48:29;8.68;;;3.92;;
72406;SDS011;60396;47.550;18.828;2022-07-23T03:50:58;10.02;;;4.25;;
72406;SDS011;60396;47.550;18.828;2022-07-23T03:53:26;9.68;;;4.28;;
72406;SDS011;60396;47.550;18.828;2022-07-23T03:55:54;8.05;;;3.55;;
72406;SDS011;60396;47.550;18.828;2022-07-23T03:58:22;8.83;;;3.40;;
72406;SDS011;60396;47.550;18.828;2022-07-23T04:00:49;7.03;;;3.83;;
72406;SDS011;60396;47.550;18.828;2022-07-23T04:03:18;7.30;;;3.37;;
72406;SDS011;60396;47.550;18.828;2022-07-23T04:05:46;8.02;;;3.83;;
72406;SDS011;60396;47.550;18.828;2022-07-23T04:08:14;8.25;;;3.20;;
72406;SDS011;60396;47.550;18.828;2022-07-23T04:10:42;8.83;;;3.27;;
72406;SDS011;60396;47.550;18.828;2022-07-23T04:13:10;10.07;;;3.30;;
72406;SDS011;60396;47.550;18.828;2022-07-23T04:15:38;8.35;;;3.55;;
72406;SDS011;60396;47.550;18.828;2022-07-23T04:18:06;8.25;;;3.50;;
72406;SDS011;60396;47.550;18.828;2022-07-23T04:20:34;8.25;;;3.85;;
72406;SDS011;60396;47.550;18.828;2022-07-23T04:23:07;7.40;;;3.30;;
72406;SDS011;60396;47.550;18.828;2022-07-23T04:25:37;6.90;;;3.30;;
72406;SDS011;60396;47.550;18.828;2022-07-23T04:28:05;7.75;;;3.45;;
72406;SDS011;60396;47.550;18.828;2022-07-23T04:30:33;11.95;;;3.65;;
72406;SDS011;60396;47.550;18.828;2022-07-23T04:33:01;7.62;;;3.55;;
72406;SDS011;60396;47.550;18.828;2022-07-23T04:35:28;8.77;;;3.70;;
72406;SDS011;60396;47.550;18.828;2022-07-23T04:37:57;7.72;;;3.65;;
72406;SDS011;60396;47.550;18.828;2022-07-23T04:40:25;6.72;;;3.22;;
72406;SDS011;60396;47.550;18.828;2022-07-23T04:42:53;8.13;;;3.87;;
72406;SDS011;60396;47.550;18.828;2022-07-23T04:45:21;7.37;;;3.62;;
72406;SDS011;60396;47.550;18.828;2022-07-23T04:47:51;8.60;;;3.57;;
72406;SDS011;60396;47.550;18.828;2022-07-23T04:50:18;7.18;;;3.40;;
72406;SDS011;60396;47.550;18.828;2022-07-23T04:52:49;7.93;;;3.40;;
72406;SDS011;60396;47.550;18.828;2022-07-23T04:55:17;7.30;;;3.47;;
72406;SDS011;60396;47.550;18.828;2022-07-23T04:57:45;9.48;;;3.60;;
72406;SDS011;60396;47.550;18.828;2022-07-23T05:00:13;8.13;;;3.77;;
72406;SDS011;60396;47.550;18.828;2022-07-23T05:02:41;7.93;;;3.70;;
72406;SDS011;60396;47.550;18.828;2022-07-23T05:05:09;7.80;;;3.85;;
72406;SDS011;60396;47.550;18.828;2022-07-23T05:07:37;9.50;;;3.85;;
72406;SDS011;60396;47.550;18.828;2022-07-23T05:10:05;8.63;;;3.50;;
72406;SDS011;60396;47.550;18.828;2022-07-23T05:12:33;7.97;;;3.40;;
72406;SDS011;60396;47.550;18.828;2022-07-23T05:15:01;8.38;;;3.65;;
72406;SDS011;60396;47.550;18.828;2022-07-23T05:17:30;9.75;;;3.58;;
72406;SDS011;60396;47.550;18.828;2022-07-23T05:19:57;7.60;;;3.80;;
72406;SDS011;60396;47.550;18.828;2022-07-23T05:22:28;9.88;;;3.22;;
72406;SDS011;60396;47.550;18.828;2022-07-23T05:24:56;10.80;;;4.17;;
72406;SDS011;60396;47.550;18.828;2022-07-23T05:27:24;9.05;;;3.80;;
72406;SDS011;60396;47.550;18.828;2022-07-23T05:29:52;10.52;;;3.95;;
72406;SDS011;60396;47.550;18.828;2022-07-23T05:32:20;10.05;;;3.65;;
72406;SDS011;60396;47.550;18.828;2022-07-23T05:34:48;16.02;;;5.25;;
72406;SDS011;60396;47.550;18.828;2022-07-23T05:37:16;10.17;;;3.90;;
72406;SDS011;60396;47.550;18.828;2022-07-23T05:39:44;11.45;;;3.95;;
72406;SDS011;60396;47.550;18.828;2022-07-23T05:42:12;9.80;;;3.70;;
72406;SDS011;60396;47.550;18.828;2022-07-23T05:44:40;20.40;;;4.65;;
72406;SDS011;60396;47.550;18.828;2022-07-23T05:47:07;9.85;;;4.15;;
72406;SDS011;60396;47.550;18.828;2022-07-23T05:49:36;16.57;;;4.47;;
72406;SDS011;60396;47.550;18.828;2022-07-23T05:52:06;12.45;;;4.68;;
72406;SDS011;60396;47.550;18.828;2022-07-23T05:54:35;13.70;;;4.32;;
72406;SDS011;60396;47.550;18.828;2022-07-23T05:57:03;32.30;;;5.53;;
72406;SDS011;60396;47.550;18.828;2022-07-23T05:59:31;16.42;;;4.78;;
72406;SDS011;60396;47.550;18.828;2022-07-23T06:01:59;19.60;;;4.63;;
72406;SDS011;60396;47.550;18.828;2022-07-23T06:04:27;20.83;;;4.22;;
72406;SDS011;60396;47.550;18.828;2022-07-23T06:06:56;21.40;;;4.20;;
72406;SDS011;60396;47.550;18.828;2022-07-23T06:09:23;11.35;;;4.05;;
72406;SDS011;60396;47.550;18.828;2022-07-23T06:11:51;11.02;;;3.80;;
72406;SDS011;60396;47.550;18.828;2022-07-23T06:14:19;12.83;;;4.40;;
72406;SDS011;60396;47.550;18.828;2022-07-23T06:16:47;10.30;;;4.37;;
72406;SDS011;60396;47.550;18.828;2022-07-23T06:19:15;9.57;;;4.30;;
72406;SDS011;60396;47.550;18.828;2022-07-23T06:21:43;9.75;;;4.35;;
72406;SDS011;60396;47.550;18.828;2022-07-23T06:24:13;12.27;;;4.00;;
72406;SDS011;60396;47.550;18.828;2022-07-23T06:26:41;10.43;;;3.80;;
72406;SDS011;60396;47.550;18.828;2022-07-23T06:29:09;14.25;;;4.30;;
72406;SDS011;60396;47.550;18.828;2022-07-23T06:31:37;12.23;;;4.10;;
72406;SDS011;60396;47.550;18.828;2022-07-23T06:34:05;13.48;;;4.87;;
72406;SDS011;60396;47.550;18.828;2022-07-23T06:36:35;14.38;;;4.93;;
72406;SDS011;60396;47.550;18.828;2022-07-23T06:39:02;9.60;;;4.17;;
72406;SDS011;60396;47.550;18.828;2022-07-23T06:41:32;14.43;;;4.32;;
72406;SDS011;60396;47.550;18.828;2022-07-23T06:44:00;12.57;;;4.18;;
72406;SDS011;60396;47.550;18.828;2022-07-23T06:46:29;13.85;;;4.32;;
72406;SDS011;60396;47.550;18.828;2022-07-23T06:48:57;9.32;;;4.35;;
72406;SDS011;60396;47.550;18.828;2022-07-23T06:51:27;13.50;;;4.43;;
72406;SDS011;60396;47.550;18.828;2022-07-23T06:53:55;10.40;;;4.07;;
72406;SDS011;60396;47.550;18.828;2022-07-23T06:56:24;17.52;;;4.37;;
72406;SDS011;60396;47.550;18.828;2022-07-23T06:58:51;10.25;;;4.50;;
72406;SDS011;60396;47.550;18.828;2022-07-23T07:01:19;13.57;;;4.57;;
72406;SDS011;60396;47.550;18.828;2022-07-23T07:03:47;12.67;;;4.27;;
72406;SDS011;60396;47.550;18.828;2022-07-23T07:06:15;15.70;;;3.95;;
72406;SDS011;60396;47.550;18.828;2022-07-23T07:08:42;10.23;;;4.43;;
72406;SDS011;60396;47.550;18.828;2022-07-23T07:11:11;18.37;;;4.57;;
72406;SDS011;60396;47.550;18.828;2022-07-23T07:13:39;13.65;;;3.90;;
72406;SDS011;60396;47.550;18.828;2022-07-23T07:16:06;10.67;;;4.77;;
72406;SDS011;60396;47.550;18.828;2022-07-23T07:18:35;10.48;;;4.53;;
72406;SDS011;60396;47.550;18.828;2022-07-23T07:21:03;9.07;;;4.30;;
72406;SDS011;60396;47.550;18.828;2022-07-23T07:23:30;10.40;;;4.00;;
72406;SDS011;60396;47.550;18.828;2022-07-23T07:25:58;13.25;;;3.97;;
72406;SDS011;60396;47.550;18.828;2022-07-23T07:28:26;14.83;;;4.27;;
72406;SDS011;60396;47.550;18.828;2022-07-23T07:30:54;10.63;;;4.60;;
72406;SDS011;60396;47.550;18.828;2022-07-23T07:33:22;14.93;;;4.20;;
72406;SDS011;60396;47.550;18.828;2022-07-23T07:35:50;9.18;;;3.80;;
72406;SDS011;60396;47.550;18.828;2022-07-23T07:38:17;9.60;;;4.20;;
72406;SDS011;60396;47.550;18.828;2022-07-23T07:40:45;11.10;;;4.37;;
72406;SDS011;60396;47.550;18.828;2022-07-23T07:43:13;8.70;;;4.30;;
72406;SDS011;60396;47.550;18.828;2022-07-23T07:45:41;15.27;;;4.60;;
72406;SDS011;60396;47.550;18.828;2022-07-23T07:48:09;12.70;;;4.40;;
72406;SDS011;60396;47.550;18.828;2022-07-23T07:50:36;11.27;;;4.40;;
72406;SDS011;60396;47.550;18.828;2022-07-23T07:53:04;11.43;;;4.23;;
72406;SDS011;60396;47.550;18.828;2022-07-23T07:55:33;10.60;;;4.60;;
72406;SDS011;60396;47.550;18.828;2022-07-23T07:58:00;12.40;;;4.03;;
72406;SDS011;60396;47.550;18.828;2022-07-23T08:00:28;17.25;;;4.00;;
72406;SDS011;60396;47.550;18.828;2022-07-23T08:02:57;10.93;;;3.87;;
72406;SDS011;60396;47.550;18.828;2022-07-23T08:05:27;10.03;;;3.80;;
72406;SDS011;60396;47.550;18.828;2022-07-23T08:07:56;10.48;;;4.28;;
72406;SDS011;60396;47.550;18.828;2022-07-23T08:10:25;10.85;;;3.72;;
72406;SDS011;60396;47.550;18.828;2022-07-23T08:12:54;11.88;;;4.25;;
72406;SDS011;60396;47.550;18.828;2022-07-23T08:15:25;11.95;;;4.40;;
72406;SDS011;60396;47.550;18.828;2022-07-23T08:17:54;9.13;;;4.27;;
72406;SDS011;60396;47.550;18.828;2022-07-23T08:20:22;10.73;;;3.58;;
72406;SDS011;60396;47.550;18.828;2022-07-23T08:22:53;10.35;;;4.00;;
72406;SDS011;60396;47.550;18.828;2022-07-23T08:25:26;11.30;;;4.00;;
72406;SDS011;60396;47.550;18.828;2022-07-23T08:27:59;10.02;;;4.15;;
72406;SDS011;60396;47.550;18.828;2022-07-23T08:30:27;10.10;;;4.30;;
72406;SDS011;60396;47.550;18.828;2022-07-23T08:32:57;12.80;;;4.07;;
72406;SDS011;60396;47.550;18.828;2022-07-23T08:38:02;10.77;;;3.92;;
72406;SDS011;60396;47.550;18.828;2022-07-23T08:40:32;10.20;;;4.78;;
72406;SDS011;60396;47.550;18.828;2022-07-23T08:43:11;8.90;;;4.00;;
72406;SDS011;60396;47.550;18.828;2022-07-23T08:45:41;9.25;;;4.07;;
72406;SDS011;60396;47.550;18.828;2022-07-23T08:48:11;8.52;;;4.30;;
72406;SDS011;60396;47.550;18.828;2022-07-23T08:50:44;22.50;;;3.85;;
72406;SDS011;60396;47.550;18.828;2022-07-23T08:53:13;9.52;;;3.85;;
72406;SDS011;60396;47.550;18.828;2022-07-23T08:55:45;11.77;;;4.43;;
72406;SDS011;60396;47.550;18.828;2022-07-23T08:58:13;11.98;;;4.28;;
72406;SDS011;60396;47.550;18.828;2022-07-23T09:00:42;10.88;;;3.70;;
72406;SDS011;60396;47.550;18.828;2022-07-23T09:03:20;8.52;;;4.25;;
72406;SDS011;60396;47.550;18.828;2022-07-23T09:05:52;13.75;;;4.70;;
72406;SDS011;60396;47.550;18.828;2022-07-23T09:08:20;17.83;;;4.50;;
72406;SDS011;60396;47.550;18.828;2022-07-23T09:13:40;12.13;;;4.62;;
72406;SDS011;60396;47.550;18.828;2022-07-23T09:18:56;10.88;;;4.10;;
72406;SDS011;60396;47.550;18.828;2022-07-23T09:21:34;10.23;;;4.60;;
72406;SDS011;60396;47.550;18.828;2022-07-23T09:24:07;10.75;;;4.20;;
72406;SDS011;60396;47.550;18.828;2022-07-23T09:26:42;12.35;;;4.22;;
72406;SDS011;60396;47.550;18.828;2022-07-23T09:29:16;12.13;;;4.20;;
72406;SDS011;60396;47.550;18.828;2022-07-23T09:36:56;12.20;;;4.80;;
72406;SDS011;60396;47.550;18.828;2022-07-23T09:41:55;9.70;;;3.85;;
72406;SDS011;60396;47.550;18.828;2022-07-23T09:44:23;9.15;;;4.43;;
72406;SDS011;60396;47.550;18.828;2022-07-23T09:46:58;10.20;;;4.10;;
72406;SDS011;60396;47.550;18.828;2022-07-23T09:49:26;13.05;;;4.57;;
72406;SDS011;60396;47.550;18.828;2022-07-23T09:51:57;8.95;;;4.60;;
72406;SDS011;60396;47.550;18.828;2022-07-23T09:54:33;10.32;;;3.92;;
72406;SDS011;60396;47.550;18.828;2022-07-23T09:57:07;10.20;;;4.15;;
72406;SDS011;60396;47.550;18.828;2022-07-23T09:59:41;7.43;;;3.87;;
72406;SDS011;60396;47.550;18.828;2022-07-23T10:02:10;12.23;;;4.60;;
72406;SDS011;60396;47.550;18.828;2022-07-23T10:04:40;10.05;;;4.07;;
72406;SDS011;60396;47.550;18.828;2022-07-23T10:07:09;10.15;;;4.05;;
72406;SDS011;60396;47.550;18.828;2022-07-23T10:09:43;14.70;;;4.47;;
72406;SDS011;60396;47.550;18.828;2022-07-23T10:12:14;9.57;;;4.80;;
72406;SDS011;60396;47.550;18.828;2022-07-23T10:14:45;9.93;;;4.50;;
72406;SDS011;60396;47.550;18.828;2022-07-23T10:17:16;10.65;;;4.65;;
72406;SDS011;60396;47.550;18.828;2022-07-23T10:19:44;10.95;;;4.50;;
72406;SDS011;60396;47.550;18.828;2022-07-23T10:22:14;13.93;;;4.40;;
72406;SDS011;60396;47.550;18.828;2022-07-23T10:30:29;11.45;;;4.22;;
72406;SDS011;60396;47.550;18.828;2022-07-23T10:33:17;10.45;;;4.72;;
72406;SDS011;60396;47.550;18.828;2022-07-23T10:38:58;9.60;;;5.50;;
72406;SDS011;60396;47.550;18.828;2022-07-23T10:41:49;13.13;;;4.82;;
72406;SDS011;60396;47.550;18.828;2022-07-23T10:44:17;11.30;;;4.55;;
72406;SDS011;60396;47.550;18.828;2022-07-23T10:47:01;9.82;;;4.87;;
72406;SDS011;60396;47.550;18.828;2022-07-23T10:49:50;9.45;;;4.50;;
72406;SDS011;60396;47.550;18.828;2022-07-23T10:52:23;10.40;;;4.53;;
72406;SDS011;60396;47.550;18.828;2022-07-23T10:54:56;9.77;;;4.53;;
72406;SDS011;60396;47.550;18.828;2022-07-23T10:57:49;27.23;;;5.35;;
72406;SDS011;60396;47.550;18.828;2022-07-23T11:00:21;9.73;;;5.10;;
72406;SDS011;60396;47.550;18.828;2022-07-23T11:02:54;9.20;;;5.20;;
72406;SDS011;60396;47.550;18.828;2022-07-23T11:05:24;11.30;;;4.57;;
72406;SDS011;60396;47.550;18.828;2022-07-23T11:10:34;9.60;;;4.78;;
72406;SDS011;60396;47.550;18.828;2022-07-23T11:24:06;10.60;;;5.28;;
72406;SDS011;60396;47.550;18.828;2022-07-23T11:31:59;9.10;;;5.13;;
72406;SDS011;60396;47.550;18.828;2022-07-23T11:34:35;9.80;;;5.32;;
72406;SDS011;60396;47.550;18.828;2022-07-23T11:37:09;14.25;;;4.80;;
72406;SDS011;60396;47.550;18.828;2022-07-23T11:39:38;10.15;;;4.90;;
72406;SDS011;60396;47.550;18.828;2022-07-23T11:42:06;9.93;;;5.55;;
72406;SDS011;60396;47.550;18.828;2022-07-23T11:44:36;10.80;;;5.63;;
72406;SDS011;60396;47.550;18.828;2022-07-23T11:47:05;8.52;;;5.85;;
72406;SDS011;60396;47.550;18.828;2022-07-23T11:49:35;10.00;;;5.60;;
72406;SDS011;60396;47.550;18.828;2022-07-23T11:52:10;11.95;;;6.05;;
72406;SDS011;60396;47.550;18.828;2022-07-23T11:57:24;11.70;;;6.30;;
72406;SDS011;60396;47.550;18.828;2022-07-23T12:00:02;11.77;;;5.80;;
72406;SDS011;60396;47.550;18.828;2022-07-23T12:02:39;20.67;;;5.97;;
72406;SDS011;60396;47.550;18.828;2022-07-23T12:05:12;14.85;;;5.65;;
72406;SDS011;60396;47.550;18.828;2022-07-23T12:07:45;13.55;;;5.85;;
72406;SDS011;60396;47.550;18.828;2022-07-23T12:10:18;10.83;;;5.63;;
72406;SDS011;60396;47.550;18.828;2022-07-23T12:12:54;9.18;;;5.43;;
72406;SDS011;60396;47.550;18.828;2022-07-23T12:15:24;12.75;;;5.55;;
72406;SDS011;60396;47.550;18.828;2022-07-23T12:17:56;12.73;;;5.87;;
72406;SDS011;60396;47.550;18.828;2022-07-23T12:20:25;18.25;;;6.07;;
72406;SDS011;60396;47.550;18.828;2022-07-23T12:22:59;11.53;;;5.83;;
72406;SDS011;60396;47.550;18.828;2022-07-23T12:25:30;10.77;;;5.70;;
72406;SDS011;60396;47.550;18.828;2022-07-23T12:30:32;15.18;;;6.15;;
72406;SDS011;60396;47.550;18.828;2022-07-23T12:33:01;12.70;;;5.85;;
72406;SDS011;60396;47.550;18.828;2022-07-23T12:35:51;13.97;;;6.33;;
72406;SDS011;60396;47.550;18.828;2022-07-23T12:38:18;13.62;;;6.28;;
72406;SDS011;60396;47.550;18.828;2022-07-23T12:40:48;12.52;;;5.70;;
72406;SDS011;60396;47.550;18.828;2022-07-23T12:46:02;14.23;;;5.07;;
72406;SDS011;60396;47.550;18.828;2022-07-23T12:48:32;11.00;;;5.70;;
72406;SDS011;60396;47.550;18.828;2022-07-23T12:51:24;13.25;;;5.25;;
72406;SDS011;60396;47.550;18.828;2022-07-23T12:53:56;9.25;;;5.50;;
72406;SDS011;60396;47.550;18.828;2022-07-23T12:56:29;13.43;;;5.50;;
72406;SDS011;60396;47.550;18.828;2022-07-23T13:01:32;10.93;;;4.70;;
72406;SDS011;60396;47.550;18.828;2022-07-23T13:06:44;12.52;;;5.50;;
72406;SDS011;60396;47.550;18.828;2022-07-23T13:09:18;11.40;;;5.87;;
72406;SDS011;60396;47.550;18.828;2022-07-23T13:11:52;10.63;;;5.55;;
72406;SDS011;60396;47.550;18.828;2022-07-23T13:14:23;14.60;;;5.80;;
72406;SDS011;60396;47.550;18.828;2022-07-23T13:16:53;10.13;;;5.65;;
72406;SDS011;60396;47.550;18.828;2022-07-23T13:19:25;12.88;;;5.10;;
72406;SDS011;60396;47.550;18.828;2022-07-23T13:21:54;11.68;;;5.57;;
72406;SDS011;60396;47.550;18.828;2022-07-23T13:24:22;15.63;;;5.97;;
72406;SDS011;60396;47.550;18.828;2022-07-23T13:26:50;8.30;;;5.30;;
72406;SDS011;60396;47.550;18.828;2022-07-23T13:29:19;11.68;;;5.75;;
72406;SDS011;60396;47.550;18.828;2022-07-23T13:31:48;10.95;;;5.20;;
72406;SDS011;60396;47.550;18.828;2022-07-23T13:34:17;11.05;;;5.07;;
72406;SDS011;60396;47.550;18.828;2022-07-23T13:36:46;13.07;;;4.95;;
72406;SDS011;60396;47.550;18.828;2022-07-23T13:39:14;9.53;;;5.30;;
72406;SDS011;60396;47.550;18.828;2022-07-23T13:41:41;17.55;;;5.95;;
72406;SDS011;60396;47.550;18.828;2022-07-23T13:44:17;10.27;;;5.20;;
72406;SDS011;60396;47.550;18.828;2022-07-23T13:46:49;11.45;;;5.60;;
72406;SDS011;60396;47.550;18.828;2022-07-23T13:49:17;10.07;;;5.43;;
72406;SDS011;60396;47.550;18.828;2022-07-23T13:51:45;9.93;;;5.23;;
72406;SDS011;60396;47.550;18.828;2022-07-23T13:54:13;12.98;;;5.07;;
72406;SDS011;60396;47.550;18.828;2022-07-23T13:56:41;13.52;;;4.97;;
72406;SDS011;60396;47.550;18.828;2022-07-23T13:59:10;10.30;;;5.22;;
72406;SDS011;60396;47.550;18.828;2022-07-23T14:01:38;11.88;;;5.12;;
72406;SDS011;60396;47.550;18.828;2022-07-23T14:04:26;9.97;;;5.00;;
72406;SDS011;60396;47.550;18.828;2022-07-23T14:06:54;10.00;;;5.10;;
72406;SDS011;60396;47.550;18.828;2022-07-23T14:09:21;12.00;;;5.97;;
72406;SDS011;60396;47.550;18.828;2022-07-23T14:11:52;15.35;;;5.75;;
72406;SDS011;60396;47.550;18.828;2022-07-23T14:14:20;17.35;;;5.65;;
72406;SDS011;60396;47.550;18.828;2022-07-23T14:16:48;11.67;;;5.87;;
72406;SDS011;60396;47.550;18.828;2022-07-23T14:19:16;11.27;;;5.10;;
72406;SDS011;60396;47.550;18.828;2022-07-23T14:21:45;10.88;;;5.12;;
72406;SDS011;60396;47.550;18.828;2022-07-23T14:24:13;12.07;;;5.75;;
72406;SDS011;60396;47.550;18.828;2022-07-23T14:26:41;10.63;;;5.37;;
72406;SDS011;60396;47.550;18.828;2022-07-23T14:29:09;11.93;;;5.23;;
72406;SDS011;60396;47.550;18.828;2022-07-23T14:31:38;10.50;;;5.20;;
72406;SDS011;60396;47.550;18.828;2022-07-23T14:34:07;10.88;;;5.05;;
72406;SDS011;60396;47.550;18.828;2022-07-23T14:36:34;16.33;;;5.40;;
72406;SDS011;60396;47.550;18.828;2022-07-23T14:39:05;12.25;;;6.15;;
72406;SDS011;60396;47.550;18.828;2022-07-23T14:41:37;12.97;;;5.60;;
72406;SDS011;60396;47.550;18.828;2022-07-23T14:44:05;13.02;;;5.53;;
72406;SDS011;60396;47.550;18.828;2022-07-23T14:46:33;10.63;;;5.82;;
72406;SDS011;60396;47.550;18.828;2022-07-23T14:49:02;12.85;;;5.60;;
72406;SDS011;60396;47.550;18.828;2022-07-23T14:51:32;10.02;;;5.32;;
72406;SDS011;60396;47.550;18.828;2022-07-23T14:54:00;14.13;;;5.40;;
72406;SDS011;60396;47.550;18.828;2022-07-23T14:56:28;17.25;;;6.05;;
72406;SDS011;60396;47.550;18.828;2022-07-23T14:58:56;16.00;;;5.87;;
72406;SDS011;60396;47.550;18.828;2022-07-23T15:01:24;9.00;;;5.35;;
72406;SDS011;60396;47.550;18.828;2022-07-23T15:03:53;13.10;;;5.70;;
72406;SDS011;60396;47.550;18.828;2022-07-23T15:06:25;19.87;;;5.90;;
72406;SDS011;60396;47.550;18.828;2022-07-23T15:08:53;17.73;;;6.35;;
72406;SDS011;60396;47.550;18.828;2022-07-23T15:11:21;16.95;;;5.57;;
72406;SDS011;60396;47.550;18.828;2022-07-23T15:13:51;11.32;;;5.80;;
72406;SDS011;60396;47.550;18.828;2022-07-23T15:16:19;10.05;;;5.57;;
72406;SDS011;60396;47.550;18.828;2022-07-23T15:18:51;35.53;;;8.73;;
72406;SDS011;60396;47.550;18.828;2022-07-23T15:21:19;42.25;;;11.02;;
72406;SDS011;60396;47.550;18.828;2022-07-23T15:23:46;41.55;;;10.20;;
72406;SDS011;60396;47.550;18.828;2022-07-23T15:26:15;30.20;;;9.45;;
72406;SDS011;60396;47.550;18.828;2022-07-23T15:28:43;28.25;;;9.65;;
72406;SDS011;60396;47.550;18.828;2022-07-23T15:31:12;28.10;;;9.10;;
72406;SDS011;60396;47.550;18.828;2022-07-23T15:33:39;54.08;;;9.88;;
72406;SDS011;60396;47.550;18.828;2022-07-23T15:36:07;26.85;;;8.90;;